sensor_id;sensor_type;location;lat;lon;timestamp;P1;durP1;ratioP1;P2;durP2;ratioP2
43813;SDS011;29669;55.706;37.656;2023-09-19T00:00:56;33.55;;;17.45;;
43813;SDS011;29669;55.706;37.656;2023-09-19T00:03:25;28.85;;;16.33;;
43813;SDS011;29669;55.706;37.656;2023-09-19T00:05:53;30.30;;;17.63;;
43813;SDS011;29669;55.706;37.656;2023-09-19T00:08:20;26.45;;;16.92;;
43813;SDS011;29669;55.706;37.656;2023-09-19T00:10:52;30.48;;;17.50;;
43813;SDS011;29669;55.706;37.656;2023-09-19T00:13:21;32.10;;;19.65;;
43813;SDS011;29669;55.706;37.656;2023-09-19T00:15:49;31.95;;;17.52;;
43813;SDS011;29669;55.706;37.656;2023-09-19T00:18:18;30.23;;;19.67;;
43813;SDS011;29669;55.706;37.656;2023-09-19T00:20:49;37.38;;;20.17;;
43813;SDS011;29669;55.706;37.656;2023-09-19T00:23:19;37.00;;;24.42;;
43813;SDS011;29669;55.706;37.656;2023-09-19T00:25:48;44.05;;;28.27;;
43813;SDS011;29669;55.706;37.656;2023-09-19T00:28:16;43.20;;;29.63;;
43813;SDS011;29669;55.706;37.656;2023-09-19T00:30:45;47.78;;;30.13;;
43813;SDS011;29669;55.706;37.656;2023-09-19T00:33:18;48.75;;;28.55;;
43813;SDS011;29669;55.706;37.656;2023-09-19T00:35:53;43.00;;;26.90;;
43813;SDS011;29669;55.706;37.656;2023-09-19T00:38:21;45.42;;;25.92;;
43813;SDS011;29669;55.706;37.656;2023-09-19T00:40:54;39.28;;;25.42;;
43813;SDS011;29669;55.706;37.656;2023-09-19T00:43:27;42.22;;;25.83;;
43813;SDS011;29669;55.706;37.656;2023-09-19T00:45:55;47.55;;;25.95;;
43813;SDS011;29669;55.706;37.656;2023-09-19T00:48:24;45.72;;;26.55;;
43813;SDS011;29669;55.706;37.656;2023-09-19T00:50:55;45.05;;;24.52;;
43813;SDS011;29669;55.706;37.656;2023-09-19T00:53:26;40.58;;;25.58;;
43813;SDS011;29669;55.706;37.656;2023-09-19T00:55:57;35.75;;;23.70;;
43813;SDS011;29669;55.706;37.656;2023-09-19T00:58:24;38.28;;;24.08;;
43813;SDS011;29669;55.706;37.656;2023-09-19T01:00:52;42.60;;;22.77;;
43813;SDS011;29669;55.706;37.656;2023-09-19T01:03:20;33.55;;;20.38;;
43813;SDS011;29669;55.706;37.656;2023-09-19T01:05:49;31.80;;;18.90;;
43813;SDS011;29669;55.706;37.656;2023-09-19T01:08:19;29.92;;;19.38;;
43813;SDS011;29669;55.706;37.656;2023-09-19T01:10:51;33.58;;;20.90;;
43813;SDS011;29669;55.706;37.656;2023-09-19T01:25:42;31.83;;;19.67;;
43813;SDS011;29669;55.706;37.656;2023-09-19T01:28:32;31.38;;;18.77;;
43813;SDS011;29669;55.706;37.656;2023-09-19T01:31:09;33.17;;;19.80;;
43813;SDS011;29669;55.706;37.656;2023-09-19T01:33:58;29.17;;;18.88;;
43813;SDS011;29669;55.706;37.656;2023-09-19T01:36:28;29.27;;;18.42;;
43813;SDS011;29669;55.706;37.656;2023-09-19T01:38:57;30.42;;;18.55;;
43813;SDS011;29669;55.706;37.656;2023-09-19T01:41:36;33.63;;;18.40;;
43813;SDS011;29669;55.706;37.656;2023-09-19T01:44:24;20.08;;;15.20;;
43813;SDS011;29669;55.706;37.656;2023-09-19T01:46:59;23.00;;;16.80;;
43813;SDS011;29669;55.706;37.656;2023-09-19T01:49:48;30.27;;;17.25;;
43813;SDS011;29669;55.706;37.656;2023-09-19T01:52:25;22.30;;;16.00;;
43813;SDS011;29669;55.706;37.656;2023-09-19T01:55:01;27.60;;;16.90;;
43813;SDS011;29669;55.706;37.656;2023-09-19T01:57:49;30.33;;;17.13;;
43813;SDS011;29669;55.706;37.656;2023-09-19T02:00:25;28.05;;;18.08;;
43813;SDS011;29669;55.706;37.656;2023-09-19T02:02:56;26.38;;;16.48;;
43813;SDS011;29669;55.706;37.656;2023-09-19T02:05:26;25.42;;;16.23;;
43813;SDS011;29669;55.706;37.656;2023-09-19T02:07:57;24.60;;;15.57;;
43813;SDS011;29669;55.706;37.656;2023-09-19T02:10:26;26.73;;;15.60;;
43813;SDS011;29669;55.706;37.656;2023-09-19T02:12:53;29.00;;;15.60;;
43813;SDS011;29669;55.706;37.656;2023-09-19T02:15:21;21.58;;;15.10;;
43813;SDS011;29669;55.706;37.656;2023-09-19T02:17:49;23.25;;;14.52;;
43813;SDS011;29669;55.706;37.656;2023-09-19T02:20:17;22.13;;;15.75;;
43813;SDS011;29669;55.706;37.656;2023-09-19T02:22:47;24.98;;;14.20;;
43813;SDS011;29669;55.706;37.656;2023-09-19T02:25:37;22.67;;;14.18;;
43813;SDS011;29669;55.706;37.656;2023-09-19T02:28:08;23.83;;;14.77;;
43813;SDS011;29669;55.706;37.656;2023-09-19T02:30:36;21.60;;;14.85;;
43813;SDS011;29669;55.706;37.656;2023-09-19T02:33:04;24.65;;;14.50;;
43813;SDS011;29669;55.706;37.656;2023-09-19T02:35:31;25.23;;;15.48;;
43813;SDS011;29669;55.706;37.656;2023-09-19T02:38:03;26.13;;;15.15;;
43813;SDS011;29669;55.706;37.656;2023-09-19T02:40:34;22.08;;;14.93;;
43813;SDS011;29669;55.706;37.656;2023-09-19T02:43:03;21.70;;;14.05;;
43813;SDS011;29669;55.706;37.656;2023-09-19T02:45:32;19.42;;;13.43;;
43813;SDS011;29669;55.706;37.656;2023-09-19T02:48:00;20.77;;;14.40;;
43813;SDS011;29669;55.706;37.656;2023-09-19T02:50:29;22.02;;;13.68;;
43813;SDS011;29669;55.706;37.656;2023-09-19T02:52:57;24.58;;;13.30;;
43813;SDS011;29669;55.706;37.656;2023-09-19T02:55:25;21.02;;;12.98;;
43813;SDS011;29669;55.706;37.656;2023-09-19T02:57:53;20.08;;;12.80;;
43813;SDS011;29669;55.706;37.656;2023-09-19T03:00:24;21.23;;;13.05;;
43813;SDS011;29669;55.706;37.656;2023-09-19T03:02:55;22.65;;;13.63;;
43813;SDS011;29669;55.706;37.656;2023-09-19T03:05:24;21.88;;;13.70;;
43813;SDS011;29669;55.706;37.656;2023-09-19T03:07:52;21.67;;;13.82;;
43813;SDS011;29669;55.706;37.656;2023-09-19T03:10:20;21.52;;;13.30;;
43813;SDS011;29669;55.706;37.656;2023-09-19T03:12:49;25.33;;;13.75;;
43813;SDS011;29669;55.706;37.656;2023-09-19T03:15:18;23.40;;;14.63;;
43813;SDS011;29669;55.706;37.656;2023-09-19T03:17:47;29.73;;;15.40;;
43813;SDS011;29669;55.706;37.656;2023-09-19T03:20:20;22.25;;;15.50;;
43813;SDS011;29669;55.706;37.656;2023-09-19T03:22:50;23.30;;;15.20;;
43813;SDS011;29669;55.706;37.656;2023-09-19T03:25:20;23.92;;;16.13;;
43813;SDS011;29669;55.706;37.656;2023-09-19T03:27:51;22.77;;;14.27;;
43813;SDS011;29669;55.706;37.656;2023-09-19T03:30:20;27.70;;;15.30;;
43813;SDS011;29669;55.706;37.656;2023-09-19T03:32:48;22.60;;;13.90;;
43813;SDS011;29669;55.706;37.656;2023-09-19T03:35:18;19.00;;;13.57;;
43813;SDS011;29669;55.706;37.656;2023-09-19T03:37:47;24.88;;;14.88;;
43813;SDS011;29669;55.706;37.656;2023-09-19T03:40:15;26.77;;;15.52;;
43813;SDS011;29669;55.706;37.656;2023-09-19T03:42:45;23.35;;;14.45;;
43813;SDS011;29669;55.706;37.656;2023-09-19T03:45:13;28.45;;;15.90;;
43813;SDS011;29669;55.706;37.656;2023-09-19T03:47:49;25.00;;;15.27;;
43813;SDS011;29669;55.706;37.656;2023-09-19T03:50:20;34.53;;;15.60;;
43813;SDS011;29669;55.706;37.656;2023-09-19T03:52:48;27.08;;;15.68;;
43813;SDS011;29669;55.706;37.656;2023-09-19T03:55:17;24.83;;;15.23;;
43813;SDS011;29669;55.706;37.656;2023-09-19T03:57:47;30.70;;;16.58;;
43813;SDS011;29669;55.706;37.656;2023-09-19T04:00:16;24.80;;;14.88;;
43813;SDS011;29669;55.706;37.656;2023-09-19T04:02:48;24.35;;;15.05;;
43813;SDS011;29669;55.706;37.656;2023-09-19T04:05:16;21.67;;;14.73;;
43813;SDS011;29669;55.706;37.656;2023-09-19T04:07:45;28.08;;;17.25;;
43813;SDS011;29669;55.706;37.656;2023-09-19T04:10:16;23.05;;;15.32;;
43813;SDS011;29669;55.706;37.656;2023-09-19T04:12:52;27.17;;;15.10;;
43813;SDS011;29669;55.706;37.656;2023-09-19T04:15:23;25.02;;;15.38;;
43813;SDS011;29669;55.706;37.656;2023-09-19T04:17:54;23.48;;;13.90;;
43813;SDS011;29669;55.706;37.656;2023-09-19T04:20:22;28.27;;;16.08;;
43813;SDS011;29669;55.706;37.656;2023-09-19T04:22:57;25.85;;;13.55;;
43813;SDS011;29669;55.706;37.656;2023-09-19T04:25:50;24.15;;;14.20;;
43813;SDS011;29669;55.706;37.656;2023-09-19T04:28:18;24.02;;;14.85;;
43813;SDS011;29669;55.706;37.656;2023-09-19T04:30:46;23.17;;;12.77;;
43813;SDS011;29669;55.706;37.656;2023-09-19T04:33:13;19.05;;;13.82;;
43813;SDS011;29669;55.706;37.656;2023-09-19T04:35:44;22.75;;;13.55;;
43813;SDS011;29669;55.706;37.656;2023-09-19T04:38:12;25.15;;;12.88;;
43813;SDS011;29669;55.706;37.656;2023-09-19T04:40:42;22.15;;;12.25;;
43813;SDS011;29669;55.706;37.656;2023-09-19T04:43:09;22.67;;;12.85;;
43813;SDS011;29669;55.706;37.656;2023-09-19T04:45:37;19.35;;;12.68;;
43813;SDS011;29669;55.706;37.656;2023-09-19T04:48:06;22.52;;;12.30;;
43813;SDS011;29669;55.706;37.656;2023-09-19T04:50:36;30.40;;;12.48;;
43813;SDS011;29669;55.706;37.656;2023-09-19T04:53:04;22.20;;;11.85;;
43813;SDS011;29669;55.706;37.656;2023-09-19T04:55:32;24.77;;;13.65;;
43813;SDS011;29669;55.706;37.656;2023-09-19T04:58:00;24.73;;;12.27;;
43813;SDS011;29669;55.706;37.656;2023-09-19T05:00:28;20.08;;;11.65;;
43813;SDS011;29669;55.706;37.656;2023-09-19T05:02:58;23.10;;;12.93;;
43813;SDS011;29669;55.706;37.656;2023-09-19T05:05:25;19.05;;;12.68;;
43813;SDS011;29669;55.706;37.656;2023-09-19T05:07:54;21.38;;;13.02;;
43813;SDS011;29669;55.706;37.656;2023-09-19T05:10:23;29.60;;;12.38;;
43813;SDS011;29669;55.706;37.656;2023-09-19T05:12:53;19.77;;;12.32;;
43813;SDS011;29669;55.706;37.656;2023-09-19T05:15:21;21.90;;;12.02;;
43813;SDS011;29669;55.706;37.656;2023-09-19T05:17:49;23.80;;;12.52;;
43813;SDS011;29669;55.706;37.656;2023-09-19T05:20:22;18.05;;;12.50;;
43813;SDS011;29669;55.706;37.656;2023-09-19T05:23:05;25.13;;;13.57;;
43813;SDS011;29669;55.706;37.656;2023-09-19T05:25:39;19.05;;;12.77;;
43813;SDS011;29669;55.706;37.656;2023-09-19T05:28:07;17.77;;;12.90;;
43813;SDS011;29669;55.706;37.656;2023-09-19T05:30:38;21.45;;;13.15;;
43813;SDS011;29669;55.706;37.656;2023-09-19T05:33:07;18.38;;;12.75;;
43813;SDS011;29669;55.706;37.656;2023-09-19T05:35:35;18.73;;;12.93;;
43813;SDS011;29669;55.706;37.656;2023-09-19T05:38:09;19.25;;;12.75;;
43813;SDS011;29669;55.706;37.656;2023-09-19T05:40:37;17.40;;;12.25;;
43813;SDS011;29669;55.706;37.656;2023-09-19T05:43:06;22.48;;;14.23;;
43813;SDS011;29669;55.706;37.656;2023-09-19T05:45:34;19.15;;;12.40;;
43813;SDS011;29669;55.706;37.656;2023-09-19T05:48:09;16.88;;;11.98;;
43813;SDS011;29669;55.706;37.656;2023-09-19T05:50:40;16.63;;;13.15;;
43813;SDS011;29669;55.706;37.656;2023-09-19T05:53:09;21.33;;;13.20;;
43813;SDS011;29669;55.706;37.656;2023-09-19T05:55:40;21.88;;;13.60;;
43813;SDS011;29669;55.706;37.656;2023-09-19T05:58:08;19.80;;;13.07;;
43813;SDS011;29669;55.706;37.656;2023-09-19T06:00:37;20.30;;;14.15;;
43813;SDS011;29669;55.706;37.656;2023-09-19T06:03:06;21.23;;;13.85;;
43813;SDS011;29669;55.706;37.656;2023-09-19T06:05:34;19.35;;;13.77;;
43813;SDS011;29669;55.706;37.656;2023-09-19T06:08:01;24.95;;;14.98;;
43813;SDS011;29669;55.706;37.656;2023-09-19T06:10:35;22.20;;;14.15;;
43813;SDS011;29669;55.706;37.656;2023-09-19T06:13:05;19.95;;;13.32;;
43813;SDS011;29669;55.706;37.656;2023-09-19T06:15:37;26.65;;;14.70;;
43813;SDS011;29669;55.706;37.656;2023-09-19T06:18:05;24.77;;;14.40;;
43813;SDS011;29669;55.706;37.656;2023-09-19T06:20:41;18.63;;;13.70;;
43813;SDS011;29669;55.706;37.656;2023-09-19T06:23:12;24.48;;;13.35;;
43813;SDS011;29669;55.706;37.656;2023-09-19T06:25:40;25.65;;;14.90;;
43813;SDS011;29669;55.706;37.656;2023-09-19T06:28:08;21.50;;;13.32;;
43813;SDS011;29669;55.706;37.656;2023-09-19T06:30:39;19.00;;;12.27;;
43813;SDS011;29669;55.706;37.656;2023-09-19T06:33:10;20.67;;;13.90;;
43813;SDS011;29669;55.706;37.656;2023-09-19T06:35:41;23.38;;;13.55;;
43813;SDS011;29669;55.706;37.656;2023-09-19T06:38:09;17.35;;;13.02;;
43813;SDS011;29669;55.706;37.656;2023-09-19T06:40:40;18.58;;;12.85;;
43813;SDS011;29669;55.706;37.656;2023-09-19T06:43:31;19.17;;;13.35;;
43813;SDS011;29669;55.706;37.656;2023-09-19T06:46:02;20.83;;;13.30;;
43813;SDS011;29669;55.706;37.656;2023-09-19T06:48:31;20.17;;;12.88;;
43813;SDS011;29669;55.706;37.656;2023-09-19T06:51:00;21.10;;;13.63;;
43813;SDS011;29669;55.706;37.656;2023-09-19T06:53:32;17.85;;;12.75;;
43813;SDS011;29669;55.706;37.656;2023-09-19T06:56:03;28.48;;;13.52;;
43813;SDS011;29669;55.706;37.656;2023-09-19T06:58:30;24.77;;;13.85;;
43813;SDS011;29669;55.706;37.656;2023-09-19T07:00:59;19.73;;;12.30;;
43813;SDS011;29669;55.706;37.656;2023-09-19T07:03:28;22.67;;;13.40;;
43813;SDS011;29669;55.706;37.656;2023-09-19T07:05:56;17.17;;;12.45;;
43813;SDS011;29669;55.706;37.656;2023-09-19T07:08:25;23.85;;;13.85;;
43813;SDS011;29669;55.706;37.656;2023-09-19T07:10:53;21.70;;;12.50;;
43813;SDS011;29669;55.706;37.656;2023-09-19T07:13:23;18.75;;;12.50;;
43813;SDS011;29669;55.706;37.656;2023-09-19T07:15:52;19.90;;;12.85;;
43813;SDS011;29669;55.706;37.656;2023-09-19T07:18:21;16.95;;;12.68;;
43813;SDS011;29669;55.706;37.656;2023-09-19T07:20:49;20.45;;;12.32;;
43813;SDS011;29669;55.706;37.656;2023-09-19T07:23:20;19.60;;;12.48;;
43813;SDS011;29669;55.706;37.656;2023-09-19T07:25:56;20.80;;;13.40;;
43813;SDS011;29669;55.706;37.656;2023-09-19T07:28:24;22.02;;;13.45;;
43813;SDS011;29669;55.706;37.656;2023-09-19T07:30:51;18.88;;;12.00;;
43813;SDS011;29669;55.706;37.656;2023-09-19T07:33:19;24.75;;;13.05;;
43813;SDS011;29669;55.706;37.656;2023-09-19T07:35:47;19.13;;;11.85;;
43813;SDS011;29669;55.706;37.656;2023-09-19T07:38:15;26.40;;;12.85;;
43813;SDS011;29669;55.706;37.656;2023-09-19T07:40:44;20.08;;;12.45;;
43813;SDS011;29669;55.706;37.656;2023-09-19T07:43:11;21.40;;;13.38;;
43813;SDS011;29669;55.706;37.656;2023-09-19T07:45:39;19.95;;;12.13;;
43813;SDS011;29669;55.706;37.656;2023-09-19T07:48:07;22.10;;;11.50;;
43813;SDS011;29669;55.706;37.656;2023-09-19T07:50:41;22.03;;;12.17;;
43813;SDS011;29669;55.706;37.656;2023-09-19T07:53:10;25.95;;;12.25;;
43813;SDS011;29669;55.706;37.656;2023-09-19T07:55:40;14.88;;;11.50;;
43813;SDS011;29669;55.706;37.656;2023-09-19T07:58:09;23.02;;;12.23;;
43813;SDS011;29669;55.706;37.656;2023-09-19T08:00:36;26.23;;;11.90;;
43813;SDS011;29669;55.706;37.656;2023-09-19T08:03:04;18.40;;;11.55;;
43813;SDS011;29669;55.706;37.656;2023-09-19T08:05:41;20.75;;;12.15;;
43813;SDS011;29669;55.706;37.656;2023-09-19T08:08:11;24.15;;;12.82;;
43813;SDS011;29669;55.706;37.656;2023-09-19T08:10:42;21.20;;;13.00;;
43813;SDS011;29669;55.706;37.656;2023-09-19T08:13:12;19.58;;;11.82;;
43813;SDS011;29669;55.706;37.656;2023-09-19T08:15:43;21.10;;;13.13;;
43813;SDS011;29669;55.706;37.656;2023-09-19T08:18:11;18.90;;;12.00;;
43813;SDS011;29669;55.706;37.656;2023-09-19T08:20:39;20.73;;;13.43;;
43813;SDS011;29669;55.706;37.656;2023-09-19T08:23:09;21.08;;;12.07;;
43813;SDS011;29669;55.706;37.656;2023-09-19T08:25:37;18.50;;;12.27;;
43813;SDS011;29669;55.706;37.656;2023-09-19T08:28:06;20.27;;;12.95;;
43813;SDS011;29669;55.706;37.656;2023-09-19T08:30:36;24.15;;;12.50;;
43813;SDS011;29669;55.706;37.656;2023-09-19T08:37:17;20.52;;;12.32;;
43813;SDS011;29669;55.706;37.656;2023-09-19T08:39:46;19.30;;;13.63;;
43813;SDS011;29669;55.706;37.656;2023-09-19T08:42:14;17.33;;;12.30;;
43813;SDS011;29669;55.706;37.656;2023-09-19T08:44:43;22.00;;;12.52;;
43813;SDS011;29669;55.706;37.656;2023-09-19T08:47:15;17.10;;;12.63;;
43813;SDS011;29669;55.706;37.656;2023-09-19T08:54:57;20.55;;;13.45;;
43813;SDS011;29669;55.706;37.656;2023-09-19T08:57:29;22.35;;;12.77;;
43813;SDS011;29669;55.706;37.656;2023-09-19T09:00:02;24.65;;;14.00;;
43813;SDS011;29669;55.706;37.656;2023-09-19T09:02:40;23.10;;;13.90;;
43813;SDS011;29669;55.706;37.656;2023-09-19T09:05:09;20.58;;;12.88;;
43813;SDS011;29669;55.706;37.656;2023-09-19T09:07:40;21.67;;;12.38;;
43813;SDS011;29669;55.706;37.656;2023-09-19T09:10:08;20.88;;;13.13;;
43813;SDS011;29669;55.706;37.656;2023-09-19T09:12:36;17.85;;;12.45;;
43813;SDS011;29669;55.706;37.656;2023-09-19T09:15:04;21.25;;;13.77;;
43813;SDS011;29669;55.706;37.656;2023-09-19T09:17:32;22.98;;;13.48;;
43813;SDS011;29669;55.706;37.656;2023-09-19T09:20:00;22.20;;;14.18;;
43813;SDS011;29669;55.706;37.656;2023-09-19T09:22:30;19.13;;;13.15;;
43813;SDS011;29669;55.706;37.656;2023-09-19T09:24:59;26.50;;;14.07;;
43813;SDS011;29669;55.706;37.656;2023-09-19T09:27:31;21.00;;;13.38;;
43813;SDS011;29669;55.706;37.656;2023-09-19T09:30:00;18.08;;;13.35;;
43813;SDS011;29669;55.706;37.656;2023-09-19T09:32:31;20.42;;;12.20;;
43813;SDS011;29669;55.706;37.656;2023-09-19T09:35:07;25.02;;;13.27;;
43813;SDS011;29669;55.706;37.656;2023-09-19T09:37:37;18.02;;;12.65;;
43813;SDS011;29669;55.706;37.656;2023-09-19T09:40:06;20.17;;;12.80;;
43813;SDS011;29669;55.706;37.656;2023-09-19T09:42:47;19.27;;;12.00;;
43813;SDS011;29669;55.706;37.656;2023-09-19T09:45:23;23.05;;;12.32;;
43813;SDS011;29669;55.706;37.656;2023-09-19T09:48:09;25.42;;;13.60;;
43813;SDS011;29669;55.706;37.656;2023-09-19T09:50:59;25.65;;;13.07;;
43813;SDS011;29669;55.706;37.656;2023-09-19T09:53:30;22.58;;;12.27;;
43813;SDS011;29669;55.706;37.656;2023-09-19T09:56:02;17.95;;;12.07;;
43813;SDS011;29669;55.706;37.656;2023-09-19T09:58:40;23.80;;;13.07;;
43813;SDS011;29669;55.706;37.656;2023-09-19T10:01:17;27.33;;;14.27;;
43813;SDS011;29669;55.706;37.656;2023-09-19T10:03:45;24.02;;;13.10;;
43813;SDS011;29669;55.706;37.656;2023-09-19T10:06:16;20.45;;;12.95;;
43813;SDS011;29669;55.706;37.656;2023-09-19T10:08:57;17.17;;;11.88;;
43813;SDS011;29669;55.706;37.656;2023-09-19T10:11:44;22.50;;;12.80;;
43813;SDS011;29669;55.706;37.656;2023-09-19T10:14:17;29.55;;;13.50;;
43813;SDS011;29669;55.706;37.656;2023-09-19T10:16:51;27.30;;;15.50;;
43813;SDS011;29669;55.706;37.656;2023-09-19T10:20:06;17.90;;;11.88;;
43813;SDS011;29669;55.706;37.656;2023-09-19T10:22:45;41.55;;;21.77;;
43813;SDS011;29669;55.706;37.656;2023-09-19T10:25:28;22.85;;;12.65;;
43813;SDS011;29669;55.706;37.656;2023-09-19T10:27:57;31.35;;;14.45;;
43813;SDS011;29669;55.706;37.656;2023-09-19T10:30:31;19.25;;;13.38;;
43813;SDS011;29669;55.706;37.656;2023-09-19T10:33:01;18.88;;;11.65;;
43813;SDS011;29669;55.706;37.656;2023-09-19T10:35:32;17.42;;;12.48;;
43813;SDS011;29669;55.706;37.656;2023-09-19T10:38:13;18.50;;;11.88;;
43813;SDS011;29669;55.706;37.656;2023-09-19T10:40:48;20.77;;;13.80;;
43813;SDS011;29669;55.706;37.656;2023-09-19T10:43:18;24.67;;;12.30;;
43813;SDS011;29669;55.706;37.656;2023-09-19T10:45:49;19.00;;;12.30;;
43813;SDS011;29669;55.706;37.656;2023-09-19T10:48:20;23.60;;;12.10;;
43813;SDS011;29669;55.706;37.656;2023-09-19T10:51:14;18.10;;;11.57;;
43813;SDS011;29669;55.706;37.656;2023-09-19T10:56:19;22.35;;;12.25;;
43813;SDS011;29669;55.706;37.656;2023-09-19T10:59:14;20.15;;;12.77;;
43813;SDS011;29669;55.706;37.656;2023-09-19T11:02:30;19.38;;;12.02;;
43813;SDS011;29669;55.706;37.656;2023-09-19T11:04:45;18.08;;;12.20;;
43813;SDS011;29669;55.706;37.656;2023-09-19T11:07:15;24.33;;;12.38;;
43813;SDS011;29669;55.706;37.656;2023-09-19T11:09:47;16.63;;;11.93;;
43813;SDS011;29669;55.706;37.656;2023-09-19T11:14:59;17.20;;;12.02;;
43813;SDS011;29669;55.706;37.656;2023-09-19T11:30:33;20.80;;;12.13;;
43813;SDS011;29669;55.706;37.656;2023-09-19T11:33:25;20.58;;;12.18;;
43813;SDS011;29669;55.706;37.656;2023-09-19T11:36:06;23.55;;;11.60;;
43813;SDS011;29669;55.706;37.656;2023-09-19T11:43:48;19.10;;;11.48;;
43813;SDS011;29669;55.706;37.656;2023-09-19T11:46:21;18.48;;;11.30;;
43813;SDS011;29669;55.706;37.656;2023-09-19T11:48:52;18.77;;;11.38;;
43813;SDS011;29669;55.706;37.656;2023-09-19T11:51:20;24.83;;;12.05;;
43813;SDS011;29669;55.706;37.656;2023-09-19T11:53:51;18.08;;;11.73;;
43813;SDS011;29669;55.706;37.656;2023-09-19T11:56:20;30.10;;;14.82;;
43813;SDS011;29669;55.706;37.656;2023-09-19T11:58:52;50.58;;;20.02;;
43813;SDS011;29669;55.706;37.656;2023-09-19T12:01:24;19.40;;;11.70;;
43813;SDS011;29669;55.706;37.656;2023-09-19T12:03:57;21.10;;;12.93;;
43813;SDS011;29669;55.706;37.656;2023-09-19T12:06:27;14.43;;;11.35;;
43813;SDS011;29669;55.706;37.656;2023-09-19T12:09:23;21.13;;;12.15;;
43813;SDS011;29669;55.706;37.656;2023-09-19T12:13:29;21.55;;;10.80;;
43813;SDS011;29669;55.706;37.656;2023-09-19T12:17:21;21.15;;;11.32;;
43813;SDS011;29669;55.706;37.656;2023-09-19T12:25:08;21.38;;;11.40;;
43813;SDS011;29669;55.706;37.656;2023-09-19T12:28:58;17.27;;;12.18;;
43813;SDS011;29669;55.706;37.656;2023-09-19T12:32:51;21.30;;;12.15;;
43813;SDS011;29669;55.706;37.656;2023-09-19T12:36:28;21.73;;;11.65;;
43813;SDS011;29669;55.706;37.656;2023-09-19T12:39:24;18.98;;;10.55;;
43813;SDS011;29669;55.706;37.656;2023-09-19T12:41:52;24.02;;;11.65;;
43813;SDS011;29669;55.706;37.656;2023-09-19T12:44:19;17.23;;;10.60;;
43813;SDS011;29669;55.706;37.656;2023-09-19T12:46:47;19.60;;;11.38;;
43813;SDS011;29669;55.706;37.656;2023-09-19T12:49:22;20.45;;;11.13;;
43813;SDS011;29669;55.706;37.656;2023-09-19T12:51:54;19.05;;;10.48;;
43813;SDS011;29669;55.706;37.656;2023-09-19T12:54:51;15.50;;;9.93;;
43813;SDS011;29669;55.706;37.656;2023-09-19T12:58:37;18.80;;;11.27;;
43813;SDS011;29669;55.706;37.656;2023-09-19T13:02:27;18.90;;;11.23;;
43813;SDS011;29669;55.706;37.656;2023-09-19T13:06:02;23.02;;;10.27;;
43813;SDS011;29669;55.706;37.656;2023-09-19T13:10:06;21.75;;;11.88;;
43813;SDS011;29669;55.706;37.656;2023-09-19T13:17:49;12.15;;;10.32;;
43813;SDS011;29669;55.706;37.656;2023-09-19T13:21:36;15.82;;;10.40;;
43813;SDS011;29669;55.706;37.656;2023-09-19T13:33:09;14.73;;;10.48;;
43813;SDS011;29669;55.706;37.656;2023-09-19T13:36:59;17.75;;;11.25;;
43813;SDS011;29669;55.706;37.656;2023-09-19T13:41:23;20.23;;;10.77;;
43813;SDS011;29669;55.706;37.656;2023-09-19T14:03:23;17.02;;;9.57;;
43813;SDS011;29669;55.706;37.656;2023-09-19T14:05:50;24.48;;;10.90;;
43813;SDS011;29669;55.706;37.656;2023-09-19T14:08:17;21.45;;;9.90;;
43813;SDS011;29669;55.706;37.656;2023-09-19T14:10:44;19.00;;;10.57;;
43813;SDS011;29669;55.706;37.656;2023-09-19T14:13:10;21.55;;;10.15;;
43813;SDS011;29669;55.706;37.656;2023-09-19T14:15:39;15.02;;;9.93;;
43813;SDS011;29669;55.706;37.656;2023-09-19T14:18:05;14.00;;;10.07;;
43813;SDS011;29669;55.706;37.656;2023-09-19T14:20:33;19.98;;;11.63;;
43813;SDS011;29669;55.706;37.656;2023-09-19T14:23:09;12.55;;;9.70;;
43813;SDS011;29669;55.706;37.656;2023-09-19T14:25:37;18.42;;;10.63;;
43813;SDS011;29669;55.706;37.656;2023-09-19T14:28:08;19.17;;;9.82;;
43813;SDS011;29669;55.706;37.656;2023-09-19T14:30:36;16.77;;;10.15;;
43813;SDS011;29669;55.706;37.656;2023-09-19T14:33:06;18.90;;;9.38;;
43813;SDS011;29669;55.706;37.656;2023-09-19T14:35:39;16.63;;;9.88;;
43813;SDS011;29669;55.706;37.656;2023-09-19T14:38:07;19.05;;;9.57;;
43813;SDS011;29669;55.706;37.656;2023-09-19T14:40:35;16.88;;;9.50;;
43813;SDS011;29669;55.706;37.656;2023-09-19T14:43:04;19.52;;;9.20;;
43813;SDS011;29669;55.706;37.656;2023-09-19T14:45:32;12.95;;;9.07;;
43813;SDS011;29669;55.706;37.656;2023-09-19T14:48:00;22.65;;;9.25;;
43813;SDS011;29669;55.706;37.656;2023-09-19T14:50:27;17.42;;;10.00;;
43813;SDS011;29669;55.706;37.656;2023-09-19T14:52:57;20.27;;;9.68;;
43813;SDS011;29669;55.706;37.656;2023-09-19T14:55:25;17.08;;;10.30;;
43813;SDS011;29669;55.706;37.656;2023-09-19T14:57:54;16.48;;;10.13;;
43813;SDS011;29669;55.706;37.656;2023-09-19T15:00:24;20.52;;;9.60;;
43813;SDS011;29669;55.706;37.656;2023-09-19T15:02:51;18.77;;;10.52;;
43813;SDS011;29669;55.706;37.656;2023-09-19T15:05:19;16.80;;;9.98;;
43813;SDS011;29669;55.706;37.656;2023-09-19T15:07:47;20.33;;;11.95;;
43813;SDS011;29669;55.706;37.656;2023-09-19T15:10:15;22.83;;;12.80;;
43813;SDS011;29669;55.706;37.656;2023-09-19T15:12:43;15.98;;;11.45;;
43813;SDS011;29669;55.706;37.656;2023-09-19T15:15:11;22.17;;;11.75;;
43813;SDS011;29669;55.706;37.656;2023-09-19T15:17:40;18.60;;;11.10;;
43813;SDS011;29669;55.706;37.656;2023-09-19T15:20:08;23.25;;;10.57;;
43813;SDS011;29669;55.706;37.656;2023-09-19T15:22:36;16.60;;;10.55;;
43813;SDS011;29669;55.706;37.656;2023-09-19T15:25:04;19.33;;;12.57;;
43813;SDS011;29669;55.706;37.656;2023-09-19T15:27:32;18.48;;;11.55;;
43813;SDS011;29669;55.706;37.656;2023-09-19T15:30:00;18.48;;;11.85;;
43813;SDS011;29669;55.706;37.656;2023-09-19T15:35:45;22.63;;;12.20;;
43813;SDS011;29669;55.706;37.656;2023-09-19T15:38:12;25.40;;;13.20;;
43813;SDS011;29669;55.706;37.656;2023-09-19T15:40:46;26.13;;;12.75;;
43813;SDS011;29669;55.706;37.656;2023-09-19T15:43:14;34.10;;;14.83;;
43813;SDS011;29669;55.706;37.656;2023-09-19T15:45:44;21.10;;;12.48;;
43813;SDS011;29669;55.706;37.656;2023-09-19T15:48:12;24.55;;;12.77;;
43813;SDS011;29669;55.706;37.656;2023-09-19T15:50:39;22.05;;;11.40;;
43813;SDS011;29669;55.706;37.656;2023-09-19T15:53:09;19.35;;;12.68;;
43813;SDS011;29669;55.706;37.656;2023-09-19T15:55:39;22.08;;;13.07;;
43813;SDS011;29669;55.706;37.656;2023-09-19T15:58:07;21.10;;;13.60;;
43813;SDS011;29669;55.706;37.656;2023-09-19T16:00:35;30.85;;;17.67;;
43813;SDS011;29669;55.706;37.656;2023-09-19T16:03:07;30.50;;;15.80;;
43813;SDS011;29669;55.706;37.656;2023-09-19T16:05:36;28.55;;;15.80;;
43813;SDS011;29669;55.706;37.656;2023-09-19T16:08:05;26.55;;;15.20;;
43813;SDS011;29669;55.706;37.656;2023-09-19T16:10:36;26.52;;;14.73;;
43813;SDS011;29669;55.706;37.656;2023-09-19T16:13:05;23.65;;;13.95;;
43813;SDS011;29669;55.706;37.656;2023-09-19T16:15:33;23.73;;;14.27;;